createdAt,value
2022-12-06T00:01:19.106Z,4.50
2022-12-06T00:03:52.175Z,4.90
2022-12-06T00:06:22.540Z,4.60
2022-12-06T00:08:51.113Z,4.50
2022-12-06T00:11:22.171Z,4.40
2022-12-06T00:13:54.167Z,4.30
2022-12-06T00:16:22.506Z,4.50
2022-12-06T00:18:51.434Z,4.20
2022-12-06T00:21:21.365Z,5.20
2022-12-06T00:23:51.670Z,4.30
2022-12-06T00:26:22.081Z,4.50
2022-12-06T00:28:52.881Z,4.10
2022-12-06T00:31:22.887Z,4.10
2022-12-06T00:33:51.161Z,4.00
2022-12-06T00:36:21.001Z,4.50
2022-12-06T00:38:50.050Z,4.00
2022-12-06T00:41:21.293Z,4.00
2022-12-06T00:43:49.790Z,4.00
2022-12-06T00:46:19.446Z,4.20
2022-12-06T00:48:49.079Z,3.90
2022-12-06T00:51:19.140Z,3.90
2022-12-06T00:53:47.538Z,4.00
2022-12-06T00:56:16.226Z,3.80
2022-12-06T00:58:46.294Z,4.60
2022-12-06T01:01:16.024Z,4.10
2022-12-06T01:03:44.849Z,4.20
2022-12-06T01:06:15.304Z,4.30
2022-12-06T01:08:44.171Z,3.80
2022-12-06T01:11:14.253Z,3.70
2022-12-06T01:13:42.370Z,3.80
2022-12-06T01:16:14.498Z,3.70
2022-12-06T01:18:43.442Z,3.70
2022-12-06T01:21:13.593Z,3.80
2022-12-06T01:23:41.566Z,3.70
2022-12-06T01:26:15.354Z,4.00
2022-12-06T01:28:43.371Z,3.80
2022-12-06T01:31:13.179Z,4.90
2022-12-06T01:33:41.228Z,3.90
2022-12-06T01:36:09.662Z,4.20
2022-12-06T01:38:37.603Z,4.00
2022-12-06T01:41:05.619Z,4.00
2022-12-06T01:43:37.223Z,4.00
2022-12-06T01:46:18.324Z,4.10
2022-12-06T01:48:47.050Z,4.00
2022-12-06T01:51:16.845Z,4.40
2022-12-06T01:53:47.746Z,4.00
2022-12-06T01:56:16.278Z,4.10
2022-12-06T01:58:46.518Z,4.10
2022-12-06T02:01:15.998Z,4.80
2022-12-06T02:03:45.276Z,4.70
2022-12-06T02:06:13.578Z,4.10
2022-12-06T02:08:41.600Z,4.10
2022-12-06T02:11:10.191Z,4.10
2022-12-06T02:13:38.436Z,4.70
2022-12-06T02:16:27.540Z,4.10
2022-12-06T02:19:00.956Z,4.10
2022-12-06T02:21:37.935Z,4.10
2022-12-06T02:24:39.228Z,4.60
2022-12-06T02:27:29.522Z,4.20
2022-12-06T02:30:10.944Z,4.20
2022-12-06T02:32:51.708Z,4.30
2022-12-06T02:35:31.712Z,4.20
2022-12-06T02:38:08.880Z,4.20
2022-12-06T02:40:45.962Z,4.70
2022-12-06T02:43:17.658Z,4.20
2022-12-06T02:45:50.108Z,4.20
2022-12-06T02:48:20.519Z,4.30
2022-12-06T02:50:52.927Z,4.60
2022-12-06T02:53:21.237Z,4.30
2022-12-06T02:55:51.230Z,4.30
2022-12-06T02:58:19.325Z,5.10
2022-12-06T03:00:51.520Z,4.30
2022-12-06T03:03:53.135Z,5.20
2022-12-06T03:06:44.361Z,4.40
2022-12-06T03:09:24.645Z,5.10
2022-12-06T03:12:00.713Z,4.40
2022-12-06T03:14:34.632Z,5.30
2022-12-06T03:17:11.948Z,4.40
2022-12-06T03:19:43.206Z,4.40
2022-12-06T03:22:16.115Z,4.40
2022-12-06T03:24:45.503Z,4.50
2022-12-06T03:27:17.462Z,4.50
2022-12-06T03:29:50.881Z,4.50
2022-12-06T03:32:23.990Z,4.40
2022-12-06T03:34:56.322Z,4.80
2022-12-06T03:37:25.704Z,4.50
2022-12-06T03:40:03.332Z,4.50
2022-12-06T03:42:36.084Z,4.50
2022-12-06T03:45:05.729Z,4.50
2022-12-06T03:47:38.484Z,4.50
2022-12-06T03:50:12.550Z,4.40
2022-12-06T03:52:40.787Z,4.40
2022-12-06T03:55:09.776Z,4.40
2022-12-06T03:57:37.909Z,4.30
2022-12-06T04:00:07.851Z,4.30
2022-12-06T04:02:35.819Z,4.20
2022-12-06T04:05:03.981Z,4.20
2022-12-06T04:07:33.405Z,4.20
2022-12-06T04:10:03.836Z,4.10
2022-12-06T04:12:50.186Z,4.00
2022-12-06T04:15:18.647Z,4.00
2022-12-06T04:18:04.428Z,3.90
2022-12-06T04:20:53.599Z,3.90
2022-12-06T04:23:21.906Z,4.50
2022-12-06T04:25:50.058Z,3.80
2022-12-06T04:28:38.438Z,4.10
2022-12-06T04:31:23.761Z,4.30
2022-12-06T04:34:09.267Z,3.70
2022-12-06T04:36:55.158Z,3.60
2022-12-06T04:39:24.816Z,3.70
2022-12-06T04:42:10.633Z,3.70
2022-12-06T04:44:41.640Z,3.60
2022-12-06T04:47:10.661Z,3.60
2022-12-06T04:49:39.852Z,3.60
2022-12-06T04:52:09.255Z,3.60
2022-12-06T04:54:39.089Z,3.60
2022-12-06T04:57:10.914Z,4.50
2022-12-06T04:59:39.946Z,3.60
2022-12-06T05:02:10.071Z,3.80
2022-12-06T05:04:38.076Z,3.60
2022-12-06T05:07:06.174Z,3.60
2022-12-06T05:09:34.145Z,4.00
2022-12-06T05:12:03.457Z,3.60
2022-12-06T05:14:31.735Z,3.60
2022-12-06T05:17:00.033Z,3.60
2022-12-06T05:19:28.397Z,3.60
2022-12-06T05:21:56.406Z,4.40
2022-12-06T05:24:24.378Z,3.50
2022-12-06T05:26:52.352Z,3.70
2022-12-06T05:29:21.718Z,3.50
2022-12-06T05:31:49.775Z,3.60
2022-12-06T05:34:17.825Z,3.60
2022-12-06T05:36:48.589Z,3.50
2022-12-06T05:39:17.772Z,4.40
2022-12-06T05:41:45.802Z,3.50
2022-12-06T05:44:13.773Z,3.50
2022-12-06T05:46:43.101Z,3.50
2022-12-06T05:49:11.002Z,3.50
2022-12-06T05:51:39.294Z,4.50
2022-12-06T05:54:07.311Z,3.50
2022-12-06T05:56:35.239Z,3.50
2022-12-06T05:59:03.333Z,3.50
2022-12-06T06:01:31.244Z,3.50
2022-12-06T06:04:01.789Z,4.40
2022-12-06T06:06:30.057Z,3.50
2022-12-06T06:08:58.029Z,3.50
2022-12-06T06:11:26.228Z,3.50
2022-12-06T06:13:54.850Z,3.60
2022-12-06T06:16:22.982Z,3.50
2022-12-06T06:18:54.037Z,3.50
2022-12-06T06:21:23.287Z,3.50
2022-12-06T06:23:51.532Z,4.60
2022-12-06T06:26:19.521Z,3.50
2022-12-06T06:28:47.515Z,3.60
2022-12-06T06:31:15.908Z,3.60
2022-12-06T06:33:43.920Z,3.70
2022-12-06T06:36:12.085Z,3.50
2022-12-06T06:38:41.381Z,3.50
2022-12-06T06:41:09.632Z,3.50
2022-12-06T06:43:37.530Z,3.80
2022-12-06T06:46:07.822Z,4.10
2022-12-06T06:48:39.584Z,3.40
2022-12-06T06:51:10.270Z,3.30
2022-12-06T06:53:38.785Z,3.30
2022-12-06T06:56:09.021Z,3.30
2022-12-06T06:58:36.957Z,3.20
2022-12-06T07:01:07.631Z,3.20
2022-12-06T07:03:36.175Z,3.10
2022-12-06T07:06:09.318Z,3.10
2022-12-06T07:08:37.257Z,3.00
2022-12-06T07:11:06.994Z,3.00
2022-12-06T07:13:35.265Z,2.90
2022-12-06T07:16:05.107Z,3.50
2022-12-06T07:18:33.082Z,2.90
2022-12-06T07:21:03.923Z,2.90
2022-12-06T07:23:32.961Z,2.80
2022-12-06T07:26:02.403Z,2.80
2022-12-06T07:28:31.838Z,2.70
2022-12-06T07:30:59.804Z,2.70
2022-12-06T07:33:27.732Z,2.70
2022-12-06T07:36:12.835Z,2.60
2022-12-06T07:38:41.582Z,2.60
2022-12-06T07:41:25.506Z,2.60
2022-12-06T07:44:12.187Z,2.50
2022-12-06T07:46:40.365Z,2.50
2022-12-06T07:49:08.854Z,2.50
2022-12-06T07:51:36.745Z,3.10
2022-12-06T07:54:05.038Z,2.40
2022-12-06T07:56:32.939Z,2.40
2022-12-06T07:59:02.200Z,2.40
2022-12-06T08:01:30.352Z,2.30
2022-12-06T08:04:00.259Z,2.30
2022-12-06T08:06:28.896Z,2.30
2022-12-06T08:08:56.804Z,2.30
2022-12-06T08:11:24.782Z,2.20
2022-12-06T08:13:52.917Z,3.30
2022-12-06T08:16:22.213Z,2.20
2022-12-06T08:18:50.237Z,2.20
2022-12-06T08:21:18.644Z,2.20
2022-12-06T08:23:46.559Z,2.40
2022-12-06T08:26:18.615Z,2.20
2022-12-06T08:28:46.659Z,2.20
2022-12-06T08:31:16.696Z,2.20
2022-12-06T08:33:46.453Z,2.10
2022-12-06T08:36:16.953Z,2.20
2022-12-06T08:38:44.911Z,2.20
2022-12-06T08:41:27.709Z,2.20
2022-12-06T08:43:56.342Z,2.20
2022-12-06T08:46:25.084Z,2.20
2022-12-06T08:48:54.409Z,2.80
2022-12-06T08:51:22.647Z,2.20
2022-12-06T08:53:50.637Z,2.20
2022-12-06T08:56:18.514Z,2.20
2022-12-06T08:58:46.640Z,3.30
2022-12-06T09:01:21.595Z,2.20
2022-12-06T09:03:49.716Z,2.30
2022-12-06T09:06:19.784Z,2.30
2022-12-06T09:08:48.283Z,3.10
2022-12-06T09:11:17.153Z,2.50
2022-12-06T09:13:45.314Z,2.50
2022-12-06T09:16:15.715Z,2.60
2022-12-06T09:18:44.046Z,3.70
2022-12-06T09:21:14.249Z,2.80
2022-12-06T09:23:43.880Z,2.90
2022-12-06T09:26:12.411Z,3.30
2022-12-06T09:28:42.140Z,3.20
2022-12-06T09:31:11.336Z,3.50
2022-12-06T09:33:39.568Z,3.30
2022-12-06T09:36:13.318Z,3.50
2022-12-06T09:38:44.360Z,3.60
2022-12-06T09:41:26.159Z,3.60
2022-12-06T09:44:06.700Z,4.00
2022-12-06T09:46:52.671Z,3.80
2022-12-06T09:49:32.797Z,4.20
2022-12-06T09:52:17.592Z,4.00
2022-12-06T09:55:00.281Z,4.00
2022-12-06T09:57:34.678Z,4.10
2022-12-06T10:00:11.268Z,4.20
2022-12-06T10:03:06.903Z,4.20
2022-12-06T10:05:52.058Z,4.30
2022-12-06T10:08:33.088Z,4.30
2022-12-06T10:11:14.092Z,4.40
2022-12-06T10:13:56.625Z,4.40
2022-12-06T10:16:31.916Z,4.50
2022-12-06T10:19:10.546Z,4.60
2022-12-06T10:21:49.372Z,4.60
2022-12-06T10:24:32.777Z,4.70
2022-12-06T10:27:09.600Z,4.70
2022-12-06T10:29:45.920Z,4.80
2022-12-06T10:32:19.449Z,4.90
2022-12-06T10:34:55.795Z,5.00
2022-12-06T10:37:43.021Z,5.00
2022-12-06T10:40:17.614Z,5.10
2022-12-06T10:42:52.589Z,5.20
2022-12-06T10:45:43.620Z,5.20
2022-12-06T10:48:18.883Z,5.30
2022-12-06T10:50:52.494Z,5.90
2022-12-06T10:53:23.752Z,5.40
2022-12-06T10:55:57.828Z,5.40
2022-12-06T10:58:34.429Z,5.40
2022-12-06T11:01:06.058Z,5.50
2022-12-06T11:03:38.965Z,5.90
2022-12-06T11:06:12.823Z,5.50
2022-12-06T11:08:45.216Z,5.50
2022-12-06T11:11:16.561Z,5.60
2022-12-06T11:13:50.029Z,5.60
2022-12-06T11:16:23.033Z,5.60
2022-12-06T11:18:52.084Z,5.60
2022-12-06T11:21:29.827Z,6.00
2022-12-06T11:24:04.107Z,5.70
2022-12-06T11:26:39.358Z,5.70
2022-12-06T11:29:13.308Z,5.80
2022-12-06T11:31:44.735Z,5.70
2022-12-06T11:34:18.033Z,5.80
2022-12-06T11:36:47.618Z,5.90
2022-12-06T11:39:16.441Z,5.90
2022-12-06T11:41:49.110Z,5.90
2022-12-06T11:44:25.520Z,5.90
2022-12-06T11:46:57.062Z,6.00
2022-12-06T11:49:29.742Z,6.10
2022-12-06T11:52:00.695Z,6.20
2022-12-06T11:54:33.777Z,6.40
2022-12-06T11:57:15.696Z,6.40
2022-12-06T12:00:16.529Z,6.50
2022-12-06T12:02:46.736Z,6.50
2022-12-06T12:05:21.001Z,6.60
2022-12-06T12:07:53.810Z,6.70
2022-12-06T12:10:34.453Z,6.80
2022-12-06T12:13:37.768Z,6.90
2022-12-06T12:16:13.892Z,6.90
2022-12-06T12:18:50.386Z,7.00
2022-12-06T12:21:29.011Z,7.00
2022-12-06T12:23:57.831Z,7.10
2022-12-06T12:26:34.951Z,7.10
2022-12-06T12:29:15.827Z,7.20
2022-12-06T12:31:56.561Z,7.30
2022-12-06T12:34:27.264Z,7.20
2022-12-06T12:36:57.993Z,7.40
2022-12-06T12:39:38.522Z,7.90
2022-12-06T12:42:26.240Z,7.20
2022-12-06T12:44:59.761Z,7.30
2022-12-06T12:47:29.855Z,7.40
2022-12-06T12:50:18.244Z,7.30
2022-12-06T12:52:46.461Z,7.40
2022-12-06T12:55:17.835Z,7.40
2022-12-06T12:57:47.513Z,7.40
2022-12-06T13:00:16.959Z,8.10
2022-12-06T13:02:49.203Z,7.50
2022-12-06T13:05:35.756Z,7.50
2022-12-06T13:08:12.779Z,7.50
2022-12-06T13:10:45.561Z,7.50
2022-12-06T13:13:17.445Z,7.50
2022-12-06T13:15:48.125Z,7.50
2022-12-06T13:18:22.025Z,7.50
2022-12-06T13:20:52.891Z,7.50
2022-12-06T13:23:23.931Z,7.50
2022-12-06T13:26:06.325Z,7.50
2022-12-06T13:28:40.765Z,7.60
2022-12-06T13:31:16.043Z,8.10
2022-12-06T13:33:49.599Z,7.50
2022-12-06T13:36:18.727Z,7.50
2022-12-06T13:38:46.832Z,7.50
2022-12-06T13:41:36.584Z,7.60
2022-12-06T13:44:04.658Z,7.50
2022-12-06T13:46:34.532Z,7.50
2022-12-06T13:49:26.070Z,7.40
2022-12-06T13:51:54.209Z,8.40
2022-12-06T13:54:32.730Z,7.30
2022-12-06T13:57:03.454Z,7.90
2022-12-06T13:59:38.385Z,7.30
2022-12-06T14:02:51.132Z,7.20
2022-12-06T14:08:33.660Z,7.20
2022-12-06T14:11:25.932Z,7.30
2022-12-06T14:14:03.034Z,7.30
2022-12-06T14:16:35.414Z,7.80
2022-12-06T14:19:13.278Z,7.30
2022-12-06T14:21:45.064Z,7.30
2022-12-06T14:24:31.416Z,7.90
2022-12-06T14:27:08.034Z,7.20
2022-12-06T14:29:36.044Z,7.30
2022-12-06T14:32:04.430Z,7.30
2022-12-06T14:34:35.193Z,7.30
2022-12-06T14:37:19.719Z,7.30
2022-12-06T14:39:53.185Z,7.40
2022-12-06T14:42:39.123Z,7.40
2022-12-06T14:45:15.396Z,7.40
2022-12-06T14:47:45.309Z,7.30
2022-12-06T14:50:28.281Z,7.40
2022-12-06T14:53:00.704Z,7.30
2022-12-06T14:55:29.300Z,7.30
2022-12-06T14:57:59.534Z,7.30
2022-12-06T15:00:34.494Z,7.30
2022-12-06T15:03:22.311Z,7.30
2022-12-06T15:05:52.269Z,7.30
2022-12-06T15:08:33.373Z,7.20
2022-12-06T15:11:06.212Z,7.20
2022-12-06T15:13:33.314Z,7.20
2022-12-06T15:16:05.125Z,7.10
2022-12-06T15:18:36.240Z,7.10
2022-12-06T15:21:07.577Z,7.10
2022-12-06T15:23:39.187Z,7.10
2022-12-06T15:26:08.985Z,7.10
2022-12-06T15:28:37.170Z,7.00
2022-12-06T15:31:06.139Z,7.00
2022-12-06T15:33:34.265Z,7.00
2022-12-06T15:36:02.302Z,7.00
2022-12-06T15:38:30.294Z,7.00
2022-12-06T15:40:59.655Z,8.00
2022-12-06T15:43:31.585Z,6.90
2022-12-06T15:46:02.078Z,6.90
2022-12-06T15:48:30.181Z,6.90
2022-12-06T15:50:59.788Z,6.90
2022-12-06T15:53:29.083Z,6.80
2022-12-06T15:55:57.228Z,6.80
2022-12-06T15:58:26.529Z,6.70
2022-12-06T16:00:55.115Z,6.80
2022-12-06T16:03:23.221Z,7.20
2022-12-06T16:05:51.657Z,6.70
2022-12-06T16:08:19.744Z,6.70
2022-12-06T16:11:11.335Z,6.60
2022-12-06T16:13:37.201Z,6.60
2022-12-06T16:16:05.881Z,6.70
2022-12-06T16:18:33.897Z,6.70
2022-12-06T16:21:03.225Z,6.70
2022-12-06T16:24:13.834Z,6.70
2022-12-06T16:26:45.291Z,6.90
2022-12-06T16:29:17.691Z,6.70
2022-12-06T16:31:45.912Z,6.70
2022-12-06T16:34:14.763Z,6.70
2022-12-06T16:36:57.289Z,6.70
2022-12-06T16:39:25.645Z,6.70
2022-12-06T16:41:53.655Z,6.70
2022-12-06T16:44:23.318Z,6.60
2022-12-06T16:46:52.853Z,6.60
2022-12-06T16:49:45.197Z,6.60
2022-12-06T16:52:10.875Z,6.60
2022-12-06T16:54:41.218Z,6.60
2022-12-06T16:57:10.286Z,6.50
2022-12-06T16:59:45.567Z,6.50
2022-12-06T17:02:26.300Z,6.40
2022-12-06T17:04:54.810Z,6.40
2022-12-06T17:07:22.923Z,6.30
2022-12-06T17:09:52.942Z,6.30
2022-12-06T17:12:21.101Z,6.20
2022-12-06T17:14:51.024Z,6.60
2022-12-06T17:17:21.399Z,6.10
2022-12-06T17:19:49.844Z,6.00
2022-12-06T17:22:18.829Z,5.90
2022-12-06T17:24:47.189Z,5.90
2022-12-06T17:27:15.642Z,5.80
2022-12-06T17:29:44.620Z,5.80
2022-12-06T17:32:14.371Z,5.70
2022-12-06T17:34:42.440Z,6.10
2022-12-06T17:37:10.657Z,6.70
2022-12-06T17:39:38.728Z,5.70
2022-12-06T17:42:24.650Z,5.60
2022-12-06T17:44:52.930Z,5.60
2022-12-06T17:47:22.330Z,5.60
2022-12-06T17:49:52.763Z,5.50
2022-12-06T17:52:20.908Z,5.50
2022-12-06T17:54:48.862Z,5.50
2022-12-06T17:57:18.725Z,5.50
2022-12-06T17:59:48.209Z,5.40
2022-12-06T18:02:18.858Z,5.40
2022-12-06T18:04:48.931Z,5.30
2022-12-06T18:07:17.852Z,5.30
2022-12-06T18:09:46.373Z,5.30
2022-12-06T18:12:15.996Z,5.30
2022-12-06T18:14:44.285Z,5.30
2022-12-06T18:17:12.609Z,5.20
2022-12-06T18:19:41.459Z,5.20
2022-12-06T18:22:10.765Z,5.10
2022-12-06T18:24:38.736Z,5.10
2022-12-06T18:27:06.899Z,5.10
2022-12-06T18:29:35.664Z,5.00
2022-12-06T18:32:03.936Z,5.00
2022-12-06T18:34:32.639Z,5.00
2022-12-06T18:37:01.360Z,4.90
2022-12-06T18:39:31.671Z,4.90
2022-12-06T18:41:59.782Z,4.90
2022-12-06T18:44:27.923Z,4.90
2022-12-06T18:46:56.125Z,4.80
2022-12-06T18:49:24.144Z,4.80
2022-12-06T18:51:52.175Z,4.80
2022-12-06T18:54:20.422Z,4.80
2022-12-06T18:56:49.888Z,4.70
2022-12-06T18:59:20.114Z,4.70
2022-12-06T19:01:51.490Z,4.70
2022-12-06T19:04:19.576Z,4.60
2022-12-06T19:06:47.566Z,4.70
2022-12-06T19:09:16.308Z,4.60
2022-12-06T19:11:46.693Z,4.60
2022-12-06T19:14:16.826Z,4.60
2022-12-06T19:16:49.358Z,4.70
2022-12-06T19:19:19.779Z,5.00
2022-12-06T19:21:48.264Z,5.20
2022-12-06T19:24:18.133Z,5.20
2022-12-06T19:26:46.195Z,5.20
2022-12-06T19:29:16.649Z,5.20
2022-12-06T19:31:44.724Z,5.20
2022-12-06T19:34:16.602Z,5.20
2022-12-06T19:36:45.005Z,6.20
2022-12-06T19:39:13.850Z,5.40
2022-12-06T19:41:55.884Z,5.10
2022-12-06T19:44:25.480Z,5.10
2022-12-06T19:46:53.601Z,5.10
2022-12-06T19:49:23.607Z,5.10
2022-12-06T19:51:52.687Z,5.10
2022-12-06T19:54:22.736Z,5.20
2022-12-06T19:56:53.130Z,5.80
2022-12-06T19:59:21.277Z,5.30
2022-12-06T20:01:50.844Z,5.40
2022-12-06T20:04:20.706Z,5.50
2022-12-06T20:06:49.204Z,5.50
2022-12-06T20:09:18.061Z,5.60
2022-12-06T20:12:05.159Z,5.40
2022-12-06T20:14:38.769Z,5.40
2022-12-06T20:17:10.094Z,5.40
2022-12-06T20:19:38.639Z,5.40
2022-12-06T20:22:06.873Z,5.40
2022-12-06T20:24:34.779Z,5.40
2022-12-06T20:27:03.169Z,5.40
2022-12-06T20:29:32.837Z,5.30
2022-12-06T20:32:01.797Z,5.30
2022-12-06T20:34:34.248Z,5.20
2022-12-06T20:37:04.391Z,5.10
2022-12-06T20:39:35.266Z,5.10
2022-12-06T20:42:05.343Z,5.10
2022-12-06T20:44:33.692Z,5.60
2022-12-06T20:47:01.755Z,5.10
2022-12-06T20:49:31.136Z,5.00
2022-12-06T20:52:01.879Z,5.00
2022-12-06T20:54:29.851Z,5.10
2022-12-06T20:56:58.362Z,5.00
2022-12-06T20:59:26.341Z,5.00
2022-12-06T21:01:54.958Z,5.00
2022-12-06T21:04:23.077Z,5.00
2022-12-06T21:06:52.472Z,5.00
2022-12-06T21:09:20.466Z,5.00
2022-12-06T21:11:48.996Z,5.00
2022-12-06T21:14:18.316Z,5.70
2022-12-06T21:16:46.319Z,5.00
2022-12-06T21:19:17.972Z,5.10
2022-12-06T21:21:48.139Z,4.90
2022-12-06T21:24:19.900Z,4.90
2022-12-06T21:26:48.026Z,5.30
2022-12-06T21:29:17.226Z,4.80
2022-12-06T21:31:45.688Z,4.80
2022-12-06T21:34:14.570Z,4.80
2022-12-06T21:36:44.949Z,4.70
2022-12-06T21:39:14.380Z,4.70
2022-12-06T21:41:44.382Z,4.80
2022-12-06T21:44:12.361Z,4.80
2022-12-06T21:46:40.376Z,4.90
2022-12-06T21:49:08.384Z,5.30
2022-12-06T21:51:36.512Z,4.90
2022-12-06T21:54:04.585Z,4.90
2022-12-06T21:56:34.005Z,5.00
2022-12-06T21:59:03.385Z,4.90
2022-12-06T22:01:32.591Z,4.80
2022-12-06T22:04:04.451Z,4.80
2022-12-06T22:06:33.612Z,5.10
2022-12-06T22:09:04.228Z,5.70
2022-12-06T22:11:32.960Z,5.10
2022-12-06T22:14:04.704Z,4.60
2022-12-06T22:16:33.266Z,4.60
2022-12-06T22:19:01.324Z,4.60
2022-12-06T22:21:31.471Z,5.20
2022-12-06T22:23:59.507Z,4.40
2022-12-06T22:26:29.330Z,4.30
2022-12-06T22:28:58.244Z,4.30
2022-12-06T22:31:29.878Z,4.30
2022-12-06T22:33:59.302Z,4.30
2022-12-06T22:36:28.674Z,4.30
2022-12-06T22:38:58.379Z,4.30
2022-12-06T22:41:27.164Z,4.20
2022-12-06T22:43:56.656Z,4.20
2022-12-06T22:46:26.340Z,4.20
2022-12-06T22:48:56.659Z,4.20
2022-12-06T22:51:26.749Z,4.20
2022-12-06T22:53:56.601Z,4.20
2022-12-06T22:56:25.570Z,4.20
2022-12-06T22:58:53.990Z,4.30
2022-12-06T23:01:24.662Z,4.30
2022-12-06T23:03:54.074Z,4.30
2022-12-06T23:06:25.188Z,4.30
2022-12-06T23:08:53.960Z,4.30
2022-12-06T23:11:23.796Z,4.30
2022-12-06T23:13:51.834Z,4.30
2022-12-06T23:16:22.677Z,4.30
2022-12-06T23:18:50.757Z,4.30
2022-12-06T23:21:20.323Z,4.30
2022-12-06T23:23:51.586Z,4.30
2022-12-06T23:26:21.550Z,4.30
2022-12-06T23:28:49.941Z,4.30
2022-12-06T23:31:20.225Z,4.40
2022-12-06T23:33:48.550Z,4.40
2022-12-06T23:36:19.552Z,4.40
2022-12-06T23:38:49.302Z,4.40
2022-12-06T23:41:19.983Z,4.30
2022-12-06T23:43:48.063Z,4.30
2022-12-06T23:46:22.132Z,4.30
2022-12-06T23:48:50.922Z,4.40
2022-12-06T23:51:21.460Z,4.40
2022-12-06T23:53:53.827Z,4.50
2022-12-06T23:56:22.328Z,4.50
2022-12-06T23:58:51.400Z,4.50
